KBVU

Boulder City Municipal Airport

Boulder City, Nevada, USA
METAR KBVU 231455Z AUTO 00000KT 10SM CLR 24/00 A2989 RMK AO2
Observed Flight Rules
May-23 @ 14:55 UTC (14 minutes ago) Visual Flight Rules
Visibility Clouds
10 miles
  • Clear skies
Temperatures Readings
Current 24°C / 75°F
Dewpoint 0°C / 32°F
Humidity 21%
Altimeter 29.89" Hg
Pressure 1012 hPa
Elevation 671
METAR KBVU 231455Z AUTO 00000KT 10SM CLR 24/00 A2989 RMK AO2
Observed Flight Rules
May-23 @ 14:55 UTC
(14 minutes ago)
VFR
Clouds
  • Clear skies
Temperature Dewpoint
24°C / 75°F 0°C / 32°F
Humidity Altimeter Pressure
21% 29.89" Hg 1012 hPa